sensor_id;sensor_type;location;lat;lon;timestamp;P1;durP1;ratioP1;P2;durP2;ratioP2
15637;SDS011;26604;53.596;10.042;2023-04-30T00:02:19;11.48;;;3.20;;
15637;SDS011;26604;53.596;10.042;2023-04-30T00:04:46;14.35;;;3.45;;
15637;SDS011;26604;53.596;10.042;2023-04-30T00:07:12;9.38;;;3.40;;
15637;SDS011;26604;53.596;10.042;2023-04-30T00:09:39;9.23;;;3.35;;
15637;SDS011;26604;53.596;10.042;2023-04-30T00:12:06;11.68;;;3.30;;
15637;SDS011;26604;53.596;10.042;2023-04-30T00:14:33;10.32;;;3.60;;
15637;SDS011;26604;53.596;10.042;2023-04-30T00:17:00;18.75;;;4.93;;
15637;SDS011;26604;53.596;10.042;2023-04-30T00:19:28;12.52;;;3.83;;
15637;SDS011;26604;53.596;10.042;2023-04-30T00:21:55;16.25;;;3.05;;
15637;SDS011;26604;53.596;10.042;2023-04-30T00:24:22;7.82;;;3.50;;
15637;SDS011;26604;53.596;10.042;2023-04-30T00:26:49;10.13;;;3.85;;
15637;SDS011;26604;53.596;10.042;2023-04-30T00:29:16;10.10;;;3.60;;
15637;SDS011;26604;53.596;10.042;2023-04-30T00:31:42;11.25;;;3.33;;
15637;SDS011;26604;53.596;10.042;2023-04-30T00:34:09;14.23;;;3.60;;
15637;SDS011;26604;53.596;10.042;2023-04-30T00:36:38;12.00;;;3.53;;
15637;SDS011;26604;53.596;10.042;2023-04-30T00:39:04;16.60;;;3.75;;
15637;SDS011;26604;53.596;10.042;2023-04-30T00:41:32;7.30;;;3.25;;
15637;SDS011;26604;53.596;10.042;2023-04-30T00:44:00;12.00;;;3.42;;
15637;SDS011;26604;53.596;10.042;2023-04-30T00:46:27;10.60;;;3.53;;
15637;SDS011;26604;53.596;10.042;2023-04-30T00:48:54;15.70;;;3.97;;
15637;SDS011;26604;53.596;10.042;2023-04-30T00:51:21;13.20;;;3.83;;
15637;SDS011;26604;53.596;10.042;2023-04-30T00:53:50;17.50;;;3.92;;
15637;SDS011;26604;53.596;10.042;2023-04-30T00:56:17;16.35;;;4.05;;
15637;SDS011;26604;53.596;10.042;2023-04-30T00:58:45;14.20;;;3.80;;
15637;SDS011;26604;53.596;10.042;2023-04-30T01:01:13;11.90;;;3.33;;
15637;SDS011;26604;53.596;10.042;2023-04-30T01:03:41;9.63;;;3.25;;
15637;SDS011;26604;53.596;10.042;2023-04-30T01:06:08;10.43;;;3.92;;
15637;SDS011;26604;53.596;10.042;2023-04-30T01:08:35;16.65;;;4.18;;
15637;SDS011;26604;53.596;10.042;2023-04-30T01:11:06;14.90;;;3.65;;
15637;SDS011;26604;53.596;10.042;2023-04-30T01:13:44;14.52;;;4.28;;
15637;SDS011;26604;53.596;10.042;2023-04-30T01:16:19;9.95;;;3.58;;
15637;SDS011;26604;53.596;10.042;2023-04-30T01:18:51;10.73;;;3.50;;
15637;SDS011;26604;53.596;10.042;2023-04-30T01:21:22;11.13;;;2.90;;
15637;SDS011;26604;53.596;10.042;2023-04-30T01:23:56;13.82;;;4.40;;
15637;SDS011;26604;53.596;10.042;2023-04-30T01:26:56;16.30;;;4.38;;
15637;SDS011;26604;53.596;10.042;2023-04-30T01:29:33;13.52;;;3.50;;
15637;SDS011;26604;53.596;10.042;2023-04-30T01:32:01;11.27;;;3.42;;
15637;SDS011;26604;53.596;10.042;2023-04-30T01:34:28;16.25;;;3.92;;
15637;SDS011;26604;53.596;10.042;2023-04-30T01:37:00;8.15;;;3.30;;
15637;SDS011;26604;53.596;10.042;2023-04-30T01:39:45;11.77;;;3.78;;
15637;SDS011;26604;53.596;10.042;2023-04-30T01:42:21;12.98;;;4.40;;
15637;SDS011;26604;53.596;10.042;2023-04-30T01:44:57;13.57;;;3.70;;
15637;SDS011;26604;53.596;10.042;2023-04-30T01:47:38;9.73;;;3.28;;
15637;SDS011;26604;53.596;10.042;2023-04-30T01:50:14;7.88;;;3.60;;
15637;SDS011;26604;53.596;10.042;2023-04-30T01:52:50;9.48;;;3.53;;
15637;SDS011;26604;53.596;10.042;2023-04-30T01:55:22;14.93;;;3.63;;
15637;SDS011;26604;53.596;10.042;2023-04-30T01:57:54;16.52;;;3.90;;
15637;SDS011;26604;53.596;10.042;2023-04-30T02:00:24;11.85;;;3.80;;
15637;SDS011;26604;53.596;10.042;2023-04-30T02:02:51;10.88;;;4.28;;
15637;SDS011;26604;53.596;10.042;2023-04-30T02:05:18;17.58;;;3.45;;
15637;SDS011;26604;53.596;10.042;2023-04-30T02:07:46;15.38;;;3.63;;
15637;SDS011;26604;53.596;10.042;2023-04-30T02:10:15;10.25;;;3.38;;
15637;SDS011;26604;53.596;10.042;2023-04-30T02:12:42;13.80;;;4.28;;
15637;SDS011;26604;53.596;10.042;2023-04-30T02:15:09;11.25;;;4.20;;
15637;SDS011;26604;53.596;10.042;2023-04-30T02:17:38;12.00;;;4.18;;
15637;SDS011;26604;53.596;10.042;2023-04-30T02:20:05;12.02;;;3.33;;
15637;SDS011;26604;53.596;10.042;2023-04-30T02:22:33;10.60;;;3.38;;
15637;SDS011;26604;53.596;10.042;2023-04-30T02:25:00;10.57;;;3.42;;
15637;SDS011;26604;53.596;10.042;2023-04-30T02:27:29;9.38;;;3.25;;
15637;SDS011;26604;53.596;10.042;2023-04-30T02:29:57;9.25;;;3.22;;
15637;SDS011;26604;53.596;10.042;2023-04-30T02:32:24;9.90;;;3.63;;
15637;SDS011;26604;53.596;10.042;2023-04-30T02:34:53;10.35;;;3.90;;
15637;SDS011;26604;53.596;10.042;2023-04-30T02:37:20;10.65;;;3.30;;
15637;SDS011;26604;53.596;10.042;2023-04-30T02:39:47;10.27;;;3.55;;
15637;SDS011;26604;53.596;10.042;2023-04-30T02:42:14;12.18;;;3.58;;
15637;SDS011;26604;53.596;10.042;2023-04-30T02:44:41;9.65;;;3.78;;
15637;SDS011;26604;53.596;10.042;2023-04-30T02:47:08;11.70;;;4.00;;
15637;SDS011;26604;53.596;10.042;2023-04-30T02:49:35;12.43;;;4.78;;
15637;SDS011;26604;53.596;10.042;2023-04-30T02:52:03;7.38;;;3.35;;
15637;SDS011;26604;53.596;10.042;2023-04-30T02:54:31;12.23;;;3.45;;
15637;SDS011;26604;53.596;10.042;2023-04-30T02:56:58;10.27;;;3.47;;
15637;SDS011;26604;53.596;10.042;2023-04-30T02:59:24;12.00;;;3.70;;
15637;SDS011;26604;53.596;10.042;2023-04-30T03:01:52;17.25;;;3.97;;
15637;SDS011;26604;53.596;10.042;2023-04-30T03:04:18;14.48;;;3.53;;
15637;SDS011;26604;53.596;10.042;2023-04-30T03:06:45;14.93;;;4.45;;
15637;SDS011;26604;53.596;10.042;2023-04-30T03:09:14;12.35;;;3.97;;
15637;SDS011;26604;53.596;10.042;2023-04-30T03:11:40;12.15;;;3.33;;
15637;SDS011;26604;53.596;10.042;2023-04-30T03:14:07;9.63;;;4.28;;
15637;SDS011;26604;53.596;10.042;2023-04-30T03:16:34;13.65;;;3.63;;
15637;SDS011;26604;53.596;10.042;2023-04-30T03:19:01;17.08;;;4.43;;
15637;SDS011;26604;53.596;10.042;2023-04-30T03:21:28;11.73;;;4.03;;
15637;SDS011;26604;53.596;10.042;2023-04-30T03:23:55;15.48;;;4.22;;
15637;SDS011;26604;53.596;10.042;2023-04-30T03:26:23;9.60;;;3.47;;
15637;SDS011;26604;53.596;10.042;2023-04-30T03:28:50;16.75;;;3.88;;
15637;SDS011;26604;53.596;10.042;2023-04-30T03:31:19;15.55;;;4.18;;
15637;SDS011;26604;53.596;10.042;2023-04-30T03:33:46;14.27;;;4.75;;
15637;SDS011;26604;53.596;10.042;2023-04-30T03:36:12;11.25;;;3.42;;
15637;SDS011;26604;53.596;10.042;2023-04-30T03:38:39;14.70;;;4.00;;
15637;SDS011;26604;53.596;10.042;2023-04-30T03:41:07;19.65;;;4.25;;
15637;SDS011;26604;53.596;10.042;2023-04-30T03:43:35;18.42;;;4.65;;
15637;SDS011;26604;53.596;10.042;2023-04-30T03:46:02;12.82;;;3.65;;
15637;SDS011;26604;53.596;10.042;2023-04-30T03:48:29;10.43;;;4.10;;
15637;SDS011;26604;53.596;10.042;2023-04-30T03:50:56;15.50;;;4.13;;
15637;SDS011;26604;53.596;10.042;2023-04-30T03:53:22;11.85;;;3.60;;
15637;SDS011;26604;53.596;10.042;2023-04-30T03:55:50;14.20;;;3.78;;
15637;SDS011;26604;53.596;10.042;2023-04-30T03:58:18;11.93;;;3.85;;
15637;SDS011;26604;53.596;10.042;2023-04-30T04:00:47;12.50;;;3.53;;
15637;SDS011;26604;53.596;10.042;2023-04-30T04:03:14;10.88;;;3.90;;
15637;SDS011;26604;53.596;10.042;2023-04-30T04:05:42;9.40;;;3.97;;
15637;SDS011;26604;53.596;10.042;2023-04-30T04:08:09;9.63;;;3.30;;
15637;SDS011;26604;53.596;10.042;2023-04-30T04:10:36;8.82;;;3.22;;
15637;SDS011;26604;53.596;10.042;2023-04-30T04:13:03;13.50;;;3.97;;
15637;SDS011;26604;53.596;10.042;2023-04-30T04:15:30;9.20;;;3.67;;
15637;SDS011;26604;53.596;10.042;2023-04-30T04:17:58;8.52;;;3.72;;
15637;SDS011;26604;53.596;10.042;2023-04-30T04:20:25;10.27;;;4.00;;
15637;SDS011;26604;53.596;10.042;2023-04-30T04:22:53;7.40;;;3.38;;
15637;SDS011;26604;53.596;10.042;2023-04-30T04:25:20;7.93;;;3.88;;
15637;SDS011;26604;53.596;10.042;2023-04-30T04:27:49;12.70;;;3.20;;
15637;SDS011;26604;53.596;10.042;2023-04-30T04:30:17;11.48;;;3.53;;
15637;SDS011;26604;53.596;10.042;2023-04-30T04:32:44;11.68;;;3.95;;
15637;SDS011;26604;53.596;10.042;2023-04-30T04:35:19;11.80;;;4.07;;
15637;SDS011;26604;53.596;10.042;2023-04-30T04:37:46;11.07;;;3.28;;
15637;SDS011;26604;53.596;10.042;2023-04-30T04:40:13;9.07;;;3.92;;
15637;SDS011;26604;53.596;10.042;2023-04-30T04:42:40;8.70;;;3.10;;
15637;SDS011;26604;53.596;10.042;2023-04-30T04:45:07;12.35;;;3.50;;
15637;SDS011;26604;53.596;10.042;2023-04-30T04:47:35;14.00;;;3.47;;
15637;SDS011;26604;53.596;10.042;2023-04-30T04:50:02;13.68;;;3.95;;
15637;SDS011;26604;53.596;10.042;2023-04-30T04:52:30;12.98;;;3.70;;
15637;SDS011;26604;53.596;10.042;2023-04-30T04:54:57;11.27;;;3.90;;
15637;SDS011;26604;53.596;10.042;2023-04-30T04:57:24;8.80;;;3.60;;
15637;SDS011;26604;53.596;10.042;2023-04-30T04:59:51;8.48;;;3.15;;
15637;SDS011;26604;53.596;10.042;2023-04-30T05:02:18;11.30;;;3.70;;
15637;SDS011;26604;53.596;10.042;2023-04-30T05:04:47;8.27;;;3.45;;
15637;SDS011;26604;53.596;10.042;2023-04-30T05:07:14;15.77;;;3.63;;
15637;SDS011;26604;53.596;10.042;2023-04-30T05:09:43;11.95;;;3.95;;
15637;SDS011;26604;53.596;10.042;2023-04-30T05:12:11;17.27;;;3.88;;
15637;SDS011;26604;53.596;10.042;2023-04-30T05:14:38;6.47;;;3.25;;
15637;SDS011;26604;53.596;10.042;2023-04-30T05:17:05;8.07;;;3.40;;
15637;SDS011;26604;53.596;10.042;2023-04-30T05:19:32;17.10;;;3.45;;
15637;SDS011;26604;53.596;10.042;2023-04-30T05:21:59;11.73;;;3.25;;
15637;SDS011;26604;53.596;10.042;2023-04-30T05:24:26;12.48;;;3.67;;
15637;SDS011;26604;53.596;10.042;2023-04-30T05:26:55;6.93;;;2.97;;
15637;SDS011;26604;53.596;10.042;2023-04-30T05:29:22;13.55;;;3.33;;
15637;SDS011;26604;53.596;10.042;2023-04-30T05:31:49;10.75;;;3.60;;
15637;SDS011;26604;53.596;10.042;2023-04-30T05:34:15;11.98;;;3.67;;
15637;SDS011;26604;53.596;10.042;2023-04-30T05:36:42;11.07;;;3.70;;
15637;SDS011;26604;53.596;10.042;2023-04-30T05:39:09;9.82;;;3.50;;
15637;SDS011;26604;53.596;10.042;2023-04-30T05:41:36;8.48;;;3.25;;
15637;SDS011;26604;53.596;10.042;2023-04-30T05:44:04;11.20;;;3.65;;
15637;SDS011;26604;53.596;10.042;2023-04-30T05:46:31;8.93;;;3.30;;
15637;SDS011;26604;53.596;10.042;2023-04-30T05:48:59;10.43;;;3.22;;
15637;SDS011;26604;53.596;10.042;2023-04-30T05:51:26;8.38;;;3.58;;
15637;SDS011;26604;53.596;10.042;2023-04-30T05:53:53;6.75;;;3.05;;
15637;SDS011;26604;53.596;10.042;2023-04-30T05:56:21;9.98;;;3.30;;
15637;SDS011;26604;53.596;10.042;2023-04-30T05:58:49;9.70;;;3.40;;
15637;SDS011;26604;53.596;10.042;2023-04-30T06:01:18;17.88;;;3.70;;
15637;SDS011;26604;53.596;10.042;2023-04-30T06:03:45;11.00;;;3.20;;
15637;SDS011;26604;53.596;10.042;2023-04-30T06:06:12;13.65;;;3.67;;
15637;SDS011;26604;53.596;10.042;2023-04-30T06:08:39;6.95;;;3.60;;
15637;SDS011;26604;53.596;10.042;2023-04-30T06:11:08;9.90;;;2.85;;
15637;SDS011;26604;53.596;10.042;2023-04-30T06:13:36;12.43;;;2.92;;
15637;SDS011;26604;53.596;10.042;2023-04-30T06:16:04;14.55;;;4.93;;
15637;SDS011;26604;53.596;10.042;2023-04-30T06:18:33;7.85;;;2.72;;
15637;SDS011;26604;53.596;10.042;2023-04-30T06:21:02;11.27;;;2.80;;
15637;SDS011;26604;53.596;10.042;2023-04-30T06:23:29;11.30;;;2.95;;
15637;SDS011;26604;53.596;10.042;2023-04-30T06:25:56;10.32;;;2.63;;
15637;SDS011;26604;53.596;10.042;2023-04-30T06:28:23;15.43;;;2.55;;
15637;SDS011;26604;53.596;10.042;2023-04-30T06:30:50;7.43;;;2.25;;
15637;SDS011;26604;53.596;10.042;2023-04-30T06:33:18;8.38;;;2.35;;
15637;SDS011;26604;53.596;10.042;2023-04-30T06:35:46;9.02;;;2.10;;
15637;SDS011;26604;53.596;10.042;2023-04-30T06:38:14;17.15;;;3.10;;
15637;SDS011;26604;53.596;10.042;2023-04-30T06:40:42;5.78;;;2.40;;
15637;SDS011;26604;53.596;10.042;2023-04-30T06:43:08;8.50;;;2.88;;
15637;SDS011;26604;53.596;10.042;2023-04-30T06:45:36;11.00;;;2.65;;
15637;SDS011;26604;53.596;10.042;2023-04-30T06:48:03;9.60;;;2.50;;
15637;SDS011;26604;53.596;10.042;2023-04-30T06:50:30;10.63;;;2.65;;
15637;SDS011;26604;53.596;10.042;2023-04-30T06:52:58;7.18;;;2.53;;
15637;SDS011;26604;53.596;10.042;2023-04-30T06:57:59;10.30;;;2.30;;
15637;SDS011;26604;53.596;10.042;2023-04-30T07:00:26;6.70;;;1.90;;
15637;SDS011;26604;53.596;10.042;2023-04-30T07:02:53;10.57;;;2.35;;
15637;SDS011;26604;53.596;10.042;2023-04-30T07:05:21;3.55;;;1.95;;
15637;SDS011;26604;53.596;10.042;2023-04-30T07:07:48;9.63;;;2.53;;
15637;SDS011;26604;53.596;10.042;2023-04-30T07:10:16;6.68;;;1.95;;
15637;SDS011;26604;53.596;10.042;2023-04-30T07:12:43;7.60;;;2.28;;
15637;SDS011;26604;53.596;10.042;2023-04-30T07:15:10;9.18;;;2.25;;
15637;SDS011;26604;53.596;10.042;2023-04-30T07:17:37;7.10;;;2.15;;
15637;SDS011;26604;53.596;10.042;2023-04-30T07:20:06;9.45;;;2.13;;
15637;SDS011;26604;53.596;10.042;2023-04-30T07:22:34;10.45;;;2.83;;
15637;SDS011;26604;53.596;10.042;2023-04-30T07:25:00;4.60;;;2.40;;
15637;SDS011;26604;53.596;10.042;2023-04-30T07:27:29;11.75;;;2.40;;
15637;SDS011;26604;53.596;10.042;2023-04-30T07:29:56;8.65;;;1.92;;
15637;SDS011;26604;53.596;10.042;2023-04-30T07:32:22;7.28;;;1.80;;
15637;SDS011;26604;53.596;10.042;2023-04-30T07:34:51;7.03;;;2.13;;
15637;SDS011;26604;53.596;10.042;2023-04-30T07:37:18;7.78;;;2.42;;
15637;SDS011;26604;53.596;10.042;2023-04-30T07:39:45;7.95;;;2.03;;
15637;SDS011;26604;53.596;10.042;2023-04-30T07:42:12;9.27;;;2.33;;
15637;SDS011;26604;53.596;10.042;2023-04-30T07:44:41;5.72;;;2.20;;
15637;SDS011;26604;53.596;10.042;2023-04-30T07:47:07;8.07;;;2.60;;
15637;SDS011;26604;53.596;10.042;2023-04-30T07:49:34;11.18;;;2.45;;
15637;SDS011;26604;53.596;10.042;2023-04-30T07:52:01;12.77;;;2.65;;
15637;SDS011;26604;53.596;10.042;2023-04-30T07:54:39;4.82;;;2.53;;
15637;SDS011;26604;53.596;10.042;2023-04-30T07:57:09;13.70;;;2.45;;
15637;SDS011;26604;53.596;10.042;2023-04-30T07:59:36;7.07;;;2.45;;
15637;SDS011;26604;53.596;10.042;2023-04-30T08:02:06;5.05;;;1.80;;
15637;SDS011;26604;53.596;10.042;2023-04-30T08:04:39;5.93;;;1.70;;
15637;SDS011;26604;53.596;10.042;2023-04-30T08:07:07;8.48;;;1.98;;
15637;SDS011;26604;53.596;10.042;2023-04-30T08:09:34;11.57;;;2.22;;
15637;SDS011;26604;53.596;10.042;2023-04-30T08:12:01;10.75;;;2.50;;
15637;SDS011;26604;53.596;10.042;2023-04-30T08:14:29;6.65;;;1.95;;
15637;SDS011;26604;53.596;10.042;2023-04-30T08:16:56;6.45;;;2.10;;
15637;SDS011;26604;53.596;10.042;2023-04-30T08:19:26;7.03;;;2.35;;
15637;SDS011;26604;53.596;10.042;2023-04-30T08:21:53;6.97;;;2.30;;
15637;SDS011;26604;53.596;10.042;2023-04-30T08:24:20;5.18;;;1.90;;
15637;SDS011;26604;53.596;10.042;2023-04-30T08:26:47;7.72;;;2.22;;
15637;SDS011;26604;53.596;10.042;2023-04-30T08:29:14;7.00;;;2.75;;
15637;SDS011;26604;53.596;10.042;2023-04-30T08:31:41;10.50;;;2.60;;
15637;SDS011;26604;53.596;10.042;2023-04-30T08:34:08;6.93;;;2.25;;
15637;SDS011;26604;53.596;10.042;2023-04-30T08:36:36;8.93;;;2.42;;
15637;SDS011;26604;53.596;10.042;2023-04-30T08:39:03;11.93;;;1.90;;
15637;SDS011;26604;53.596;10.042;2023-04-30T08:41:30;12.85;;;2.08;;
15637;SDS011;26604;53.596;10.042;2023-04-30T08:43:59;9.43;;;2.35;;
15637;SDS011;26604;53.596;10.042;2023-04-30T08:46:28;8.45;;;2.00;;
15637;SDS011;26604;53.596;10.042;2023-04-30T08:48:57;11.38;;;2.58;;
15637;SDS011;26604;53.596;10.042;2023-04-30T08:51:24;6.70;;;2.10;;
15637;SDS011;26604;53.596;10.042;2023-04-30T08:53:53;6.75;;;1.85;;
15637;SDS011;26604;53.596;10.042;2023-04-30T08:56:22;10.13;;;3.25;;
15637;SDS011;26604;53.596;10.042;2023-04-30T08:58:49;2.70;;;1.63;;
15637;SDS011;26604;53.596;10.042;2023-04-30T09:01:17;9.05;;;2.03;;
15637;SDS011;26604;53.596;10.042;2023-04-30T09:03:45;3.25;;;2.15;;
15637;SDS011;26604;53.596;10.042;2023-04-30T09:06:14;9.95;;;2.25;;
15637;SDS011;26604;53.596;10.042;2023-04-30T09:08:42;7.28;;;2.10;;
15637;SDS011;26604;53.596;10.042;2023-04-30T09:11:27;8.07;;;1.95;;
15637;SDS011;26604;53.596;10.042;2023-04-30T09:13:56;4.35;;;1.88;;
15637;SDS011;26604;53.596;10.042;2023-04-30T09:16:24;6.13;;;2.53;;
15637;SDS011;26604;53.596;10.042;2023-04-30T09:18:52;11.48;;;2.65;;
15637;SDS011;26604;53.596;10.042;2023-04-30T09:21:29;7.88;;;1.85;;
15637;SDS011;26604;53.596;10.042;2023-04-30T09:23:59;8.13;;;2.13;;
15637;SDS011;26604;53.596;10.042;2023-04-30T09:26:31;5.72;;;2.13;;
15637;SDS011;26604;53.596;10.042;2023-04-30T09:28:59;6.82;;;2.38;;
15637;SDS011;26604;53.596;10.042;2023-04-30T09:31:31;12.02;;;2.13;;
15637;SDS011;26604;53.596;10.042;2023-04-30T09:33:58;6.20;;;2.13;;
15637;SDS011;26604;53.596;10.042;2023-04-30T09:36:25;7.70;;;2.17;;
15637;SDS011;26604;53.596;10.042;2023-04-30T09:38:52;3.83;;;2.38;;
15637;SDS011;26604;53.596;10.042;2023-04-30T09:41:20;4.80;;;2.00;;
15637;SDS011;26604;53.596;10.042;2023-04-30T09:43:49;11.05;;;2.45;;
15637;SDS011;26604;53.596;10.042;2023-04-30T09:46:17;4.70;;;2.70;;
15637;SDS011;26604;53.596;10.042;2023-04-30T09:48:45;4.05;;;2.00;;
15637;SDS011;26604;53.596;10.042;2023-04-30T09:51:13;10.40;;;2.22;;
15637;SDS011;26604;53.596;10.042;2023-04-30T09:53:41;5.85;;;2.22;;
15637;SDS011;26604;53.596;10.042;2023-04-30T09:56:09;10.88;;;2.13;;
15637;SDS011;26604;53.596;10.042;2023-04-30T09:58:38;8.55;;;2.00;;
15637;SDS011;26604;53.596;10.042;2023-04-30T10:01:09;5.15;;;1.80;;
15637;SDS011;26604;53.596;10.042;2023-04-30T10:03:37;4.20;;;2.00;;
15637;SDS011;26604;53.596;10.042;2023-04-30T10:06:07;8.32;;;2.42;;
15637;SDS011;26604;53.596;10.042;2023-04-30T10:08:37;7.70;;;2.15;;
15637;SDS011;26604;53.596;10.042;2023-04-30T10:11:06;3.95;;;2.08;;
15637;SDS011;26604;53.596;10.042;2023-04-30T10:13:37;8.13;;;2.30;;
15637;SDS011;26604;53.596;10.042;2023-04-30T10:16:14;6.57;;;2.10;;
15637;SDS011;26604;53.596;10.042;2023-04-30T10:18:49;8.57;;;2.55;;
15637;SDS011;26604;53.596;10.042;2023-04-30T10:21:19;4.40;;;1.77;;
15637;SDS011;26604;53.596;10.042;2023-04-30T10:23:49;8.10;;;2.05;;
15637;SDS011;26604;53.596;10.042;2023-04-30T10:26:17;6.03;;;2.50;;
15637;SDS011;26604;53.596;10.042;2023-04-30T10:28:45;6.50;;;1.88;;
15637;SDS011;26604;53.596;10.042;2023-04-30T10:31:16;7.50;;;1.92;;
15637;SDS011;26604;53.596;10.042;2023-04-30T10:33:45;5.13;;;2.03;;
15637;SDS011;26604;53.596;10.042;2023-04-30T10:36:23;7.63;;;2.30;;
15637;SDS011;26604;53.596;10.042;2023-04-30T10:38:56;8.00;;;2.03;;
15637;SDS011;26604;53.596;10.042;2023-04-30T10:41:25;5.55;;;1.90;;
15637;SDS011;26604;53.596;10.042;2023-04-30T10:43:55;7.50;;;2.28;;
15637;SDS011;26604;53.596;10.042;2023-04-30T10:46:24;6.80;;;1.90;;
15637;SDS011;26604;53.596;10.042;2023-04-30T10:48:52;6.90;;;2.47;;
15637;SDS011;26604;53.596;10.042;2023-04-30T10:51:20;7.72;;;1.80;;
15637;SDS011;26604;53.596;10.042;2023-04-30T10:53:49;4.07;;;1.60;;
15637;SDS011;26604;53.596;10.042;2023-04-30T10:56:28;8.30;;;1.80;;
15637;SDS011;26604;53.596;10.042;2023-04-30T10:58:59;7.68;;;2.22;;
15637;SDS011;26604;53.596;10.042;2023-04-30T11:01:29;5.40;;;2.03;;
15637;SDS011;26604;53.596;10.042;2023-04-30T11:04:03;8.57;;;2.80;;
15637;SDS011;26604;53.596;10.042;2023-04-30T11:09:37;6.25;;;1.88;;
15637;SDS011;26604;53.596;10.042;2023-04-30T11:12:09;5.53;;;2.10;;
15637;SDS011;26604;53.596;10.042;2023-04-30T11:14:41;6.70;;;2.25;;
15637;SDS011;26604;53.596;10.042;2023-04-30T11:17:11;7.18;;;2.10;;
15637;SDS011;26604;53.596;10.042;2023-04-30T11:19:46;6.75;;;2.28;;
15637;SDS011;26604;53.596;10.042;2023-04-30T11:22:14;4.68;;;2.10;;
15637;SDS011;26604;53.596;10.042;2023-04-30T11:24:49;2.88;;;1.58;;
15637;SDS011;26604;53.596;10.042;2023-04-30T11:27:18;6.65;;;2.33;;
15637;SDS011;26604;53.596;10.042;2023-04-30T11:29:47;5.90;;;2.05;;
15637;SDS011;26604;53.596;10.042;2023-04-30T11:32:17;3.70;;;2.50;;
15637;SDS011;26604;53.596;10.042;2023-04-30T11:34:44;8.07;;;2.10;;
15637;SDS011;26604;53.596;10.042;2023-04-30T11:37:19;6.95;;;2.05;;
15637;SDS011;26604;53.596;10.042;2023-04-30T11:39:54;7.18;;;2.03;;
15637;SDS011;26604;53.596;10.042;2023-04-30T11:42:22;7.55;;;2.20;;
15637;SDS011;26604;53.596;10.042;2023-04-30T11:44:49;6.10;;;2.30;;
15637;SDS011;26604;53.596;10.042;2023-04-30T11:47:17;3.95;;;2.03;;
15637;SDS011;26604;53.596;10.042;2023-04-30T11:49:44;6.72;;;2.22;;
15637;SDS011;26604;53.596;10.042;2023-04-30T11:52:11;9.73;;;3.45;;
15637;SDS011;26604;53.596;10.042;2023-04-30T11:54:38;8.30;;;2.47;;
15637;SDS011;26604;53.596;10.042;2023-04-30T11:57:05;5.18;;;2.17;;
15637;SDS011;26604;53.596;10.042;2023-04-30T11:59:38;10.93;;;3.05;;
15637;SDS011;26604;53.596;10.042;2023-04-30T12:02:06;5.60;;;2.20;;
15637;SDS011;26604;53.596;10.042;2023-04-30T12:04:34;7.05;;;2.92;;
15637;SDS011;26604;53.596;10.042;2023-04-30T12:07:02;5.78;;;1.80;;
15637;SDS011;26604;53.596;10.042;2023-04-30T12:09:32;4.45;;;1.90;;
15637;SDS011;26604;53.596;10.042;2023-04-30T12:12:25;6.38;;;2.42;;
15637;SDS011;26604;53.596;10.042;2023-04-30T12:14:52;5.00;;;2.13;;
15637;SDS011;26604;53.596;10.042;2023-04-30T12:17:29;7.47;;;1.92;;
15637;SDS011;26604;53.596;10.042;2023-04-30T12:19:58;6.75;;;2.05;;
15637;SDS011;26604;53.596;10.042;2023-04-30T12:22:25;6.90;;;2.33;;
15637;SDS011;26604;53.596;10.042;2023-04-30T12:24:53;6.00;;;2.13;;
15637;SDS011;26604;53.596;10.042;2023-04-30T12:27:20;3.95;;;1.95;;
15637;SDS011;26604;53.596;10.042;2023-04-30T12:29:48;6.20;;;2.20;;
15637;SDS011;26604;53.596;10.042;2023-04-30T12:32:18;5.15;;;1.98;;
15637;SDS011;26604;53.596;10.042;2023-04-30T12:34:46;4.95;;;2.40;;
15637;SDS011;26604;53.596;10.042;2023-04-30T12:37:15;3.88;;;1.85;;
15637;SDS011;26604;53.596;10.042;2023-04-30T12:39:42;7.32;;;2.30;;
15637;SDS011;26604;53.596;10.042;2023-04-30T12:42:09;7.57;;;2.10;;
15637;SDS011;26604;53.596;10.042;2023-04-30T12:44:41;5.80;;;2.33;;
15637;SDS011;26604;53.596;10.042;2023-04-30T12:47:08;8.52;;;2.40;;
15637;SDS011;26604;53.596;10.042;2023-04-30T12:49:35;8.02;;;2.50;;
15637;SDS011;26604;53.596;10.042;2023-04-30T12:52:03;6.10;;;2.28;;
15637;SDS011;26604;53.596;10.042;2023-04-30T12:54:34;5.00;;;2.17;;
15637;SDS011;26604;53.596;10.042;2023-04-30T12:57:02;5.63;;;2.75;;
15637;SDS011;26604;53.596;10.042;2023-04-30T12:59:31;4.38;;;2.10;;
15637;SDS011;26604;53.596;10.042;2023-04-30T13:02:06;6.57;;;2.40;;
15637;SDS011;26604;53.596;10.042;2023-04-30T13:04:35;6.88;;;2.30;;
15637;SDS011;26604;53.596;10.042;2023-04-30T13:07:02;6.43;;;2.40;;
15637;SDS011;26604;53.596;10.042;2023-04-30T13:09:30;4.63;;;1.98;;
15637;SDS011;26604;53.596;10.042;2023-04-30T13:11:58;7.25;;;2.45;;
15637;SDS011;26604;53.596;10.042;2023-04-30T13:14:25;5.53;;;2.08;;
15637;SDS011;26604;53.596;10.042;2023-04-30T13:16:52;7.20;;;2.35;;
15637;SDS011;26604;53.596;10.042;2023-04-30T13:19:19;5.65;;;2.42;;
15637;SDS011;26604;53.596;10.042;2023-04-30T13:21:46;6.97;;;2.75;;
15637;SDS011;26604;53.596;10.042;2023-04-30T13:24:13;7.70;;;2.33;;
15637;SDS011;26604;53.596;10.042;2023-04-30T13:26:41;4.47;;;2.42;;
15637;SDS011;26604;53.596;10.042;2023-04-30T13:29:10;5.97;;;2.38;;
15637;SDS011;26604;53.596;10.042;2023-04-30T13:31:37;5.32;;;2.38;;
15637;SDS011;26604;53.596;10.042;2023-04-30T13:34:03;7.15;;;2.67;;
15637;SDS011;26604;53.596;10.042;2023-04-30T13:36:30;6.57;;;2.63;;
15637;SDS011;26604;53.596;10.042;2023-04-30T13:38:58;3.85;;;2.17;;
15637;SDS011;26604;53.596;10.042;2023-04-30T13:41:25;9.35;;;2.45;;
15637;SDS011;26604;53.596;10.042;2023-04-30T13:43:52;3.92;;;1.92;;
15637;SDS011;26604;53.596;10.042;2023-04-30T13:46:20;8.10;;;2.30;;
15637;SDS011;26604;53.596;10.042;2023-04-30T13:48:48;6.57;;;2.20;;
15637;SDS011;26604;53.596;10.042;2023-04-30T13:51:17;6.20;;;2.08;;
15637;SDS011;26604;53.596;10.042;2023-04-30T13:53:44;5.07;;;2.20;;
15637;SDS011;26604;53.596;10.042;2023-04-30T13:56:11;7.28;;;3.10;;
15637;SDS011;26604;53.596;10.042;2023-04-30T13:58:39;9.27;;;2.90;;
15637;SDS011;26604;53.596;10.042;2023-04-30T14:01:06;6.35;;;2.53;;
15637;SDS011;26604;53.596;10.042;2023-04-30T14:03:35;7.07;;;2.60;;
15637;SDS011;26604;53.596;10.042;2023-04-30T14:06:02;7.65;;;2.00;;
15637;SDS011;26604;53.596;10.042;2023-04-30T14:08:29;4.38;;;2.00;;
15637;SDS011;26604;53.596;10.042;2023-04-30T14:10:57;8.10;;;2.67;;
15637;SDS011;26604;53.596;10.042;2023-04-30T14:13:24;6.50;;;2.40;;
15637;SDS011;26604;53.596;10.042;2023-04-30T14:15:51;5.65;;;2.47;;
15637;SDS011;26604;53.596;10.042;2023-04-30T14:18:18;7.47;;;2.30;;
15637;SDS011;26604;53.596;10.042;2023-04-30T14:20:48;3.90;;;2.40;;
15637;SDS011;26604;53.596;10.042;2023-04-30T14:23:14;7.28;;;2.47;;
15637;SDS011;26604;53.596;10.042;2023-04-30T14:25:41;7.20;;;2.20;;
15637;SDS011;26604;53.596;10.042;2023-04-30T14:28:08;7.43;;;2.40;;
15637;SDS011;26604;53.596;10.042;2023-04-30T14:30:35;6.28;;;2.35;;
15637;SDS011;26604;53.596;10.042;2023-04-30T14:33:02;6.47;;;2.30;;
15637;SDS011;26604;53.596;10.042;2023-04-30T14:35:29;8.30;;;2.20;;
15637;SDS011;26604;53.596;10.042;2023-04-30T14:37:57;4.88;;;2.25;;
15637;SDS011;26604;53.596;10.042;2023-04-30T14:40:24;5.53;;;2.42;;
15637;SDS011;26604;53.596;10.042;2023-04-30T14:42:51;8.70;;;2.58;;